Time;durP1;ratioP1;P1;durP2;ratioP2;P2;SDS_P1;SDS_P2;PMS_P1;PMS_P2;Temp;Humidity;BMP_temperature;BMP_pressure;BME280_temperature;BME280_humidity;BME280_pressure;Samples;Min_cycle;Max_cycle;Signal;HPM_P1;HPM_P2
2022/07/27 00:02:17;;;;;;;;;;;26.80;51.00;;;;;;5023719;28;87115;-37
2022/07/27 00:04:43;;;;;;;;;;;26.80;51.00;;;;;;5024404;28;86457;-37
2022/07/27 00:07:08;;;;;;;;;;;26.80;51.00;;;;;;5024265;28;87080;-37
2022/07/27 00:09:34;;;;;;;;;;;26.80;51.00;;;;;;5023619;28;88181;-37
2022/07/27 00:11:59;;;;;;;;;;;26.80;51.00;;;;;;5026483;28;88101;-37
2022/07/27 00:14:25;;;;;;;;;;;26.80;51.00;;;;;;5023305;28;88046;-37
2022/07/27 00:16:51;;;;;;;;;;;26.80;51.70;;;;;;5023590;28;87114;-37
2022/07/27 00:19:16;;;;;;;;;;;26.80;51.00;;;;;;5023792;28;87509;-37
2022/07/27 00:21:42;;;;;;;;;;;26.80;51.10;;;;;;5023531;28;87137;-37
2022/07/27 00:24:07;;;;;;;;;;;26.70;51.00;;;;;;5023765;28;87170;-37
2022/07/27 00:26:33;;;;;;;;;;;26.70;51.00;;;;;;5023726;28;87346;-37
2022/07/27 00:28:58;;;;;;;;;;;26.70;51.00;;;;;;5023579;28;86552;-37
2022/07/27 00:31:24;;;;;;;;;;;26.70;51.00;;;;;;5026588;28;87144;-37
2022/07/27 00:33:50;;;;;;;;;;;26.70;51.00;;;;;;5023142;28;88051;-37
2022/07/27 00:36:15;;;;;;;;;;;26.60;51.00;;;;;;5022712;28;88071;-37
2022/07/27 00:38:41;;;;;;;;;;;26.60;51.00;;;;;;5023478;28;88337;-37
2022/07/27 00:41:06;;;;;;;;;;;26.60;51.00;;;;;;5023134;28;88099;-37
2022/07/27 00:43:32;;;;;;;;;;;26.60;51.00;;;;;;5023034;28;87190;-37
2022/07/27 00:45:58;;;;;;;;;;;26.60;51.10;;;;;;5023011;28;87410;-37
2022/07/27 00:48:23;;;;;;;;;;;26.60;51.00;;;;;;5023080;28;87200;-37
2022/07/27 00:50:49;;;;;;;;;;;26.60;51.00;;;;;;5023289;28;87612;-37
2022/07/27 00:53:15;;;;;;;;;;;26.60;51.00;;;;;;5026422;28;87368;-37
2022/07/27 00:55:41;;;;;;;;;;;26.50;51.00;;;;;;5023010;28;87127;-37
2022/07/27 00:58:09;;;;;;;;;;;26.50;51.00;;;;;;5023156;28;87395;-37
2022/07/27 01:00:36;;;;;;;;;;;26.50;51.00;;;;;;5021959;28;88933;-37
2022/07/27 01:03:01;;;;;;;;;;;26.50;51.00;;;;;;5023254;28;87554;-37
2022/07/27 01:05:27;;;;;;;;;;;26.50;51.00;;;;;;5022870;28;88810;-37
2022/07/27 01:07:54;;;;;;;;;;;26.50;51.00;;;;;;5022674;28;88266;-37
2022/07/27 01:10:19;;;;;;;;;;;26.50;51.00;;;;;;5022943;28;87089;-37
2022/07/27 01:12:45;;;;;;;;;;;26.40;51.00;;;;;;5023213;28;87471;-37
2022/07/27 01:15:11;;;;;;;;;;;26.40;51.00;;;;;;5025292;28;88252;-37
2022/07/27 01:17:37;;;;;;;;;;;26.40;51.10;;;;;;5023122;28;88845;-37
2022/07/27 01:20:02;;;;;;;;;;;26.40;51.10;;;;;;5022535;28;88182;-37
2022/07/27 01:22:28;;;;;;;;;;;26.40;51.00;;;;;;5022676;28;87092;-37
2022/07/27 01:24:54;;;;;;;;;;;26.40;51.10;;;;;;5022284;28;87977;-37
2022/07/27 01:27:19;;;;;;;;;;;26.30;51.00;;;;;;5022521;28;88252;-37
2022/07/27 01:29:45;;;;;;;;;;;26.30;51.00;;;;;;5022675;28;87190;-37
2022/07/27 01:32:10;;;;;;;;;;;26.30;51.00;;;;;;5022838;28;87558;-37
2022/07/27 01:34:36;;;;;;;;;;;26.30;51.00;;;;;;5022432;28;88071;-37
2022/07/27 01:37:02;;;;;;;;;;;26.30;51.00;;;;;;5025515;28;87160;-37
2022/07/27 01:39:28;;;;;;;;;;;26.30;51.10;;;;;;5022156;28;87126;-37
2022/07/27 01:41:54;;;;;;;;;;;26.20;51.00;;;;;;5023150;28;86376;-37
2022/07/27 01:44:19;;;;;;;;;;;26.20;51.00;;;;;;5022454;28;87181;-37
2022/07/27 01:46:45;;;;;;;;;;;26.30;51.10;;;;;;5021582;28;88031;-37
2022/07/27 01:49:10;;;;;;;;;;;26.20;51.10;;;;;;5021695;28;88606;-37
2022/07/27 01:51:36;;;;;;;;;;;26.20;51.10;;;;;;5022376;28;88403;-37
2022/07/27 01:54:01;;;;;;;;;;;26.20;51.10;;;;;;5021913;28;89657;-37
2022/07/27 01:56:27;;;;;;;;;;;26.20;51.10;;;;;;5022544;28;87160;-37
2022/07/27 01:58:53;;;;;;;;;;;26.10;51.10;;;;;;5024985;28;87453;-37
2022/07/27 02:01:19;;;;;;;;;;;26.10;51.10;;;;;;5022130;28;87157;-37
2022/07/27 02:03:44;;;;;;;;;;;26.10;51.20;;;;;;5022491;28;87623;-37
2022/07/27 02:06:10;;;;;;;;;;;26.10;51.10;;;;;;5022450;28;87500;-37
2022/07/27 02:08:36;;;;;;;;;;;26.10;51.10;;;;;;5022282;28;87180;-37
2022/07/27 02:13:46;;;;;;;;;;;26.10;51.10;;;;;;5021245;28;88007;-37
2022/07/27 02:16:15;;;;;;;;;;;26.00;51.10;;;;;;5022064;28;87258;-37
2022/07/27 02:18:41;;;;;;;;;;;26.00;51.10;;;;;;5021724;28;87370;-37
2022/07/27 02:21:06;;;;;;;;;;;26.00;51.10;;;;;;5024743;28;88224;-37
2022/07/27 02:23:33;;;;;;;;;;;26.00;51.10;;;;;;5022220;28;87387;-37
2022/07/27 02:25:58;;;;;;;;;;;26.00;51.20;;;;;;5021578;28;88212;-37
2022/07/27 02:28:24;;;;;;;;;;;26.00;51.20;;;;;;5021846;28;87125;-37
2022/07/27 02:30:49;;;;;;;;;;;25.90;51.20;;;;;;5022823;28;86593;-37
2022/07/27 02:33:15;;;;;;;;;;;25.90;51.20;;;;;;5021581;28;88306;-37
2022/07/27 02:35:41;;;;;;;;;;;25.90;51.20;;;;;;5021831;28;87104;-37
2022/07/27 02:38:07;;;;;;;;;;;25.90;51.20;;;;;;5021128;28;88041;-37
2022/07/27 02:40:32;;;;;;;;;;;25.90;51.20;;;;;;5024487;28;88215;-37
2022/07/27 02:42:58;;;;;;;;;;;25.80;51.20;;;;;;5021662;28;87300;-37
2022/07/27 02:45:23;;;;;;;;;;;25.80;51.20;;;;;;5021538;28;88056;-38
2022/07/27 02:47:49;;;;;;;;;;;25.80;51.30;;;;;;5021849;28;87118;-37
2022/07/27 02:50:14;;;;;;;;;;;25.80;51.20;;;;;;5021747;28;87961;-37
2022/07/27 02:52:40;;;;;;;;;;;25.80;51.20;;;;;;5021461;28;87187;-37
2022/07/27 02:55:06;;;;;;;;;;;25.80;51.20;;;;;;5022240;28;86544;-37
2022/07/27 02:57:34;;;;;;;;;;;25.80;51.20;;;;;;5021264;28;88162;-37
2022/07/27 03:00:00;;;;;;;;;;;25.70;51.20;;;;;;5023703;28;87362;-37
2022/07/27 03:02:26;;;;;;;;;;;25.70;51.20;;;;;;5027459;28;88042;-37
2022/07/27 03:04:52;;;;;;;;;;;25.70;51.20;;;;;;5024907;28;87939;-37
2022/07/27 03:07:17;;;;;;;;;;;25.70;51.20;;;;;;5025117;28;87146;-37
2022/07/27 03:09:43;;;;;;;;;;;25.70;51.20;;;;;;5025022;28;87016;-37
2022/07/27 03:12:08;;;;;;;;;;;25.70;51.20;;;;;;5024467;28;88104;-37
2022/07/27 03:14:34;;;;;;;;;;;25.70;51.20;;;;;;5024899;28;87156;-37
2022/07/27 03:16:59;;;;;;;;;;;25.70;51.20;;;;;;5024590;28;87045;-37
2022/07/27 03:19:25;;;;;;;;;;;25.70;51.20;;;;;;5024898;28;87235;-37
2022/07/27 03:21:51;;;;;;;;;;;25.70;51.20;;;;;;5023310;28;87174;-37
2022/07/27 03:24:17;;;;;;;;;;;25.70;51.20;;;;;;5027062;28;88878;-37
2022/07/27 03:26:42;;;;;;;;;;;25.60;51.10;;;;;;5023821;28;88070;-37
2022/07/27 03:29:08;;;;;;;;;;;25.60;51.20;;;;;;5024812;28;88282;-37
2022/07/27 03:31:33;;;;;;;;;;;25.60;51.20;;;;;;5024271;28;88005;-37
2022/07/27 03:33:59;;;;;;;;;;;25.60;51.20;;;;;;5024631;28;87099;-37
2022/07/27 03:36:24;;;;;;;;;;;25.60;51.20;;;;;;5024842;28;86998;-37
2022/07/27 03:38:50;;;;;;;;;;;25.50;51.20;;;;;;5024197;28;88248;-37
2022/07/27 03:41:15;;;;;;;;;;;25.50;51.20;;;;;;5024431;28;87722;-37
2022/07/27 03:43:41;;;;;;;;;;;25.50;51.20;;;;;;5024877;28;86915;-37
2022/07/27 03:46:07;;;;;;;;;;;25.50;51.20;;;;;;5024874;28;89369;-37
2022/07/27 03:48:32;;;;;;;;;;;25.50;51.20;;;;;;5024385;28;87252;-37
2022/07/27 03:50:58;;;;;;;;;;;25.50;51.30;;;;;;5023367;28;89393;-37
2022/07/27 03:53:23;;;;;;;;;;;25.40;51.20;;;;;;5024351;28;87103;-37
2022/07/27 03:55:49;;;;;;;;;;;25.40;51.30;;;;;;5023891;28;88792;-37
2022/07/27 03:58:15;;;;;;;;;;;25.40;51.30;;;;;;5023392;28;89738;-37
2022/07/27 04:00:41;;;;;;;;;;;25.40;51.40;;;;;;5024316;28;87099;-36
2022/07/27 04:03:07;;;;;;;;;;;25.40;51.30;;;;;;5024162;28;87368;-37
2022/07/27 04:05:32;;;;;;;;;;;25.40;51.30;;;;;;5023669;28;88207;-37
2022/07/27 04:07:58;;;;;;;;;;;25.40;51.40;;;;;;5027655;28;86381;-37
2022/07/27 04:10:24;;;;;;;;;;;25.30;51.30;;;;;;5023092;28;88182;-37
2022/07/27 04:12:49;;;;;;;;;;;25.30;51.40;;;;;;5023652;28;87113;-37
2022/07/27 04:15:15;;;;;;;;;;;25.30;51.30;;;;;;5023212;28;87931;-36
2022/07/27 04:17:40;;;;;;;;;;;25.30;51.40;;;;;;5023325;28;88157;-36
2022/07/27 04:20:06;;;;;;;;;;;25.30;51.40;;;;;;5021973;28;87127;-37
2022/07/27 04:22:32;;;;;;;;;;;25.30;51.50;;;;;;5023706;28;87442;-36
2022/07/27 04:24:57;;;;;;;;;;;25.30;51.50;;;;;;5023559;28;88388;-36
2022/07/27 04:27:23;;;;;;;;;;;25.20;51.50;;;;;;5023613;28;87124;-37
2022/07/27 04:29:48;;;;;;;;;;;25.20;51.60;;;;;;5026230;28;87151;-36
2022/07/27 04:32:14;;;;;;;;;;;25.20;51.50;;;;;;5024236;28;86425;-37
2022/07/27 04:34:40;;;;;;;;;;;25.20;51.60;;;;;;5023734;28;87001;-37
2022/07/27 04:37:05;;;;;;;;;;;25.20;51.60;;;;;;5023283;28;88106;-37
2022/07/27 04:39:31;;;;;;;;;;;25.20;51.70;;;;;;5023072;28;88400;-36
2022/07/27 04:41:56;;;;;;;;;;;25.20;51.70;;;;;;5023453;28;88467;-36
2022/07/27 04:44:21;;;;;;;;;;;25.20;51.70;;;;;;5023329;28;88156;-37
2022/07/27 04:46:47;;;;;;;;;;;25.20;51.70;;;;;;5022906;28;87074;-37
2022/07/27 04:49:13;;;;;;;;;;;25.10;51.70;;;;;;5025959;28;87483;-36
2022/07/27 04:51:41;;;;;;;;;;;25.10;51.70;;;;;;5023388;28;87111;-36
2022/07/27 04:54:06;;;;;;;;;;;25.10;51.70;;;;;;5023200;28;87358;-36
2022/07/27 04:56:32;;;;;;;;;;;25.10;51.80;;;;;;5023504;28;87312;-37
2022/07/27 04:58:57;;;;;;;;;;;25.10;51.80;;;;;;5023088;28;87009;-36
2022/07/27 05:01:24;;;;;;;;;;;25.10;51.80;;;;;;5023250;28;87808;-36
2022/07/27 05:03:50;;;;;;;;;;;25.10;51.80;;;;;;5021999;28;89003;-36
2022/07/27 05:06:16;;;;;;;;;;;25.10;51.80;;;;;;5023088;28;87133;-37
2022/07/27 05:08:41;;;;;;;;;;;25.10;51.90;;;;;;5022950;28;88781;-36
2022/07/27 05:11:07;;;;;;;;;;;25.10;52.50;;;;;;5025635;28;87835;-36
2022/07/27 05:13:32;;;;;;;;;;;25.10;51.90;;;;;;5022841;28;87497;-36
2022/07/27 05:15:58;;;;;;;;;;;25.10;51.90;;;;;;5021038;28;91476;-37
2022/07/27 05:18:24;;;;;;;;;;;25.10;51.90;;;;;;5022606;28;87151;-37
2022/07/27 05:20:50;;;;;;;;;;;25.10;51.90;;;;;;5022906;28;89144;-36
2022/07/27 05:23:15;;;;;;;;;;;25.10;51.90;;;;;;5022053;28;88037;-36
2022/07/27 05:25:41;;;;;;;;;;;25.10;52.60;;;;;;5022809;28;87125;-36
2022/07/27 05:28:06;;;;;;;;;;;25.00;51.90;;;;;;5022045;28;88128;-36
2022/07/27 05:30:32;;;;;;;;;;;25.10;52.00;;;;;;5022650;28;88168;-37
2022/07/27 05:32:57;;;;;;;;;;;25.10;52.00;;;;;;5025571;28;87150;-37
2022/07/27 05:35:23;;;;;;;;;;;25.10;52.00;;;;;;5022455;28;87593;-37
2022/07/27 05:37:48;;;;;;;;;;;25.10;52.00;;;;;;5022755;28;87027;-37
2022/07/27 05:40:13;;;;;;;;;;;25.10;52.00;;;;;;5022623;28;87055;-37
2022/07/27 05:42:43;;;;;;;;;;;25.10;52.00;;;;;;5022088;28;88084;-36
2022/07/27 05:45:09;;;;;;;;;;;25.10;52.00;;;;;;5023070;28;86240;-36
2022/07/27 05:47:34;;;;;;;;;;;25.10;52.10;;;;;;5022057;28;86820;-37
2022/07/27 05:50:00;;;;;;;;;;;25.10;52.10;;;;;;5022139;28;87107;-36
2022/07/27 05:52:25;;;;;;;;;;;25.10;52.10;;;;;;5021916;28;88156;-36
2022/07/27 05:54:51;;;;;;;;;;;25.10;52.20;;;;;;5025084;28;88004;-36
2022/07/27 05:57:16;;;;;;;;;;;25.10;52.20;;;;;;5022207;28;87009;-37
2022/07/27 05:59:42;;;;;;;;;;;25.10;52.20;;;;;;5020809;28;87782;-36
2022/07/27 06:02:07;;;;;;;;;;;25.10;52.20;;;;;;5021921;28;88277;-36
2022/07/27 06:04:33;;;;;;;;;;;25.10;52.20;;;;;;5022232;28;87305;-36
2022/07/27 06:09:43;;;;;;;;;;;25.00;52.30;;;;;;5022363;28;86546;-36
2022/07/27 06:12:08;;;;;;;;;;;25.00;52.30;;;;;;5022262;28;87124;-36
2022/07/27 06:14:34;;;;;;;;;;;25.00;52.20;;;;;;5021990;28;87965;-36
2022/07/27 06:16:59;;;;;;;;;;;25.00;52.30;;;;;;5024213;28;89371;-37
2022/07/27 06:19:25;;;;;;;;;;;25.00;52.30;;;;;;5021782;28;88328;-36
2022/07/27 06:21:50;;;;;;;;;;;25.10;52.40;;;;;;5021945;28;87385;-36
2022/07/27 06:24:16;;;;;;;;;;;25.00;52.30;;;;;;5021998;28;87094;-37
2022/07/27 06:26:42;;;;;;;;;;;25.00;52.30;;;;;;5021709;28;89236;-37
2022/07/27 06:29:08;;;;;;;;;;;25.00;52.40;;;;;;5021948;28;88115;-36
2022/07/27 06:31:33;;;;;;;;;;;25.00;52.40;;;;;;5022124;28;87118;-36
2022/07/27 06:33:59;;;;;;;;;;;25.00;52.40;;;;;;5025038;28;87437;-37
2022/07/27 06:36:24;;;;;;;;;;;25.10;52.40;;;;;;5025202;28;88112;-36
2022/07/27 06:38:50;;;;;;;;;;;25.00;52.30;;;;;;5027824;28;87043;-36
2022/07/27 06:41:15;;;;;;;;;;;25.00;52.40;;;;;;5023787;28;90663;-36
2022/07/27 06:43:41;;;;;;;;;;;25.00;52.40;;;;;;5025390;28;86980;-36
2022/07/27 06:46:11;;;;;;;;;;;25.00;52.40;;;;;;5024939;28;87618;-36
2022/07/27 06:48:37;;;;;;;;;;;25.00;52.50;;;;;;5024895;28;88063;-36
2022/07/27 06:51:03;;;;;;;;;;;25.00;52.40;;;;;;5025318;28;87097;-36
2022/07/27 06:53:29;;;;;;;;;;;25.00;52.60;;;;;;5025122;28;87340;-36
2022/07/27 06:55:57;;;;;;;;;;;25.00;52.50;;;;;;5024796;28;88026;-36
2022/07/27 06:58:22;;;;;;;;;;;25.00;52.60;;;;;;5028276;28;86503;-36
2022/07/27 07:00:48;;;;;;;;;;;25.00;52.60;;;;;;5024759;28;88237;-36
2022/07/27 07:03:13;;;;;;;;;;;25.00;52.60;;;;;;5025081;28;87129;-36
2022/07/27 07:05:45;;;;;;;;;;;25.00;52.60;;;;;;5024668;28;88000;-36
2022/07/27 07:08:12;;;;;;;;;;;25.10;52.70;;;;;;5024611;28;86915;-36
2022/07/27 07:10:38;;;;;;;;;;;25.00;52.60;;;;;;5024870;28;87098;-36
2022/07/27 07:13:04;;;;;;;;;;;25.00;52.60;;;;;;5024862;28;87650;-36
2022/07/27 07:15:30;;;;;;;;;;;25.00;52.60;;;;;;5024037;28;89658;-36
2022/07/27 07:17:55;;;;;;;;;;;25.00;52.70;;;;;;5024692;28;86909;-36
2022/07/27 07:20:21;;;;;;;;;;;25.00;52.70;;;;;;5027643;28;88320;-36
2022/07/27 07:22:47;;;;;;;;;;;25.00;52.80;;;;;;5025325;28;86396;-36
2022/07/27 07:25:12;;;;;;;;;;;25.10;52.80;;;;;;5024434;28;87125;-36
2022/07/27 07:27:38;;;;;;;;;;;25.00;52.80;;;;;;5024338;28;88007;-37
2022/07/27 07:30:04;;;;;;;;;;;25.00;52.80;;;;;;5023841;28;87959;-36
2022/07/27 07:32:29;;;;;;;;;;;25.00;52.80;;;;;;5024589;28;88321;-36
2022/07/27 07:34:55;;;;;;;;;;;25.00;52.80;;;;;;5024215;28;88148;-36
2022/07/27 07:37:21;;;;;;;;;;;25.10;52.90;;;;;;5024714;28;87093;-36
2022/07/27 07:39:46;;;;;;;;;;;25.00;52.80;;;;;;5024395;28;87535;-36
2022/07/27 07:42:12;;;;;;;;;;;25.10;52.90;;;;;;5027069;28;87985;-36
2022/07/27 07:44:38;;;;;;;;;;;25.10;52.80;;;;;;5023815;28;87431;-36
2022/07/27 07:47:03;;;;;;;;;;;25.10;52.80;;;;;;5024265;28;87302;-36
2022/07/27 07:49:29;;;;;;;;;;;25.10;52.80;;;;;;5024268;28;87146;-36
2022/07/27 07:51:55;;;;;;;;;;;25.00;52.80;;;;;;5024421;28;87515;-36
2022/07/27 07:54:20;;;;;;;;;;;25.10;52.90;;;;;;5023175;28;88867;-36
2022/07/27 07:56:46;;;;;;;;;;;25.10;52.90;;;;;;5024307;28;86905;-36
2022/07/27 07:59:11;;;;;;;;;;;25.10;52.90;;;;;;5024259;28;87864;-37
2022/07/27 08:01:37;;;;;;;;;;;25.10;52.90;;;;;;5023973;28;88214;-36
2022/07/27 08:04:03;;;;;;;;;;;25.10;53.00;;;;;;5027053;28;87062;-37
2022/07/27 08:06:28;;;;;;;;;;;25.10;52.90;;;;;;5023683;28;88110;-36
2022/07/27 08:08:54;;;;;;;;;;;25.10;53.00;;;;;;5024053;28;87171;-36
2022/07/27 08:11:20;;;;;;;;;;;25.10;53.00;;;;;;5024693;28;87464;-36
2022/07/27 08:13:45;;;;;;;;;;;25.10;52.90;;;;;;5023684;28;88105;-36
2022/07/27 08:16:11;;;;;;;;;;;25.10;52.90;;;;;;5024347;28;87197;-36
2022/07/27 08:18:36;;;;;;;;;;;25.10;52.80;;;;;;5022858;28;87942;-36
2022/07/27 08:21:02;;;;;;;;;;;25.20;53.00;;;;;;5023634;28;87814;-36
2022/07/27 08:23:27;;;;;;;;;;;25.20;52.90;;;;;;5023693;28;87158;-36
2022/07/27 08:25:53;;;;;;;;;;;25.20;52.90;;;;;;5026398;28;86989;-36
2022/07/27 08:28:18;;;;;;;;;;;25.20;53.00;;;;;;5023420;28;87153;-36
2022/07/27 08:30:44;;;;;;;;;;;25.20;53.00;;;;;;5023965;28;87475;-36
2022/07/27 08:33:10;;;;;;;;;;;25.20;53.70;;;;;;5023372;28;87944;-36
2022/07/27 08:35:35;;;;;;;;;;;25.20;52.80;;;;;;5024045;28;86371;-36
2022/07/27 08:38:02;;;;;;;;;;;25.20;52.90;;;;;;5023591;28;87476;-36
2022/07/27 08:40:28;;;;;;;;;;;25.20;52.90;;;;;;5022696;28;89349;-36
2022/07/27 08:42:53;;;;;;;;;;;25.20;52.90;;;;;;5022985;28;88058;-36
2022/07/27 08:45:19;;;;;;;;;;;25.20;52.80;;;;;;5026060;28;88694;-36
2022/07/27 08:47:45;;;;;;;;;;;25.20;52.80;;;;;;5023512;28;87186;-36
2022/07/27 08:50:26;;;;;;;;;;;25.20;52.80;;;;;;5023185;28;88935;-36
2022/07/27 08:52:54;;;;;;;;;;;25.20;52.80;;;;;;5022668;28;89453;-36
2022/07/27 08:55:20;;;;;;;;;;;25.20;52.80;;;;;;5023369;28;87143;-36
2022/07/27 08:57:45;;;;;;;;;;;25.30;52.80;;;;;;5022466;28;86994;-36
2022/07/27 09:00:11;;;;;;;;;;;25.30;52.90;;;;;;5023345;28;86461;-36
2022/07/27 09:02:39;;;;;;;;;;;25.20;52.70;;;;;;5023106;28;86949;-36
2022/07/27 09:05:05;;;;;;;;;;;25.30;52.70;;;;;;5023034;28;88809;-36
2022/07/27 09:07:31;;;;;;;;;;;25.30;52.70;;;;;;5024950;28;88226;-36
2022/07/27 09:09:56;;;;;;;;;;;25.30;52.70;;;;;;5023174;28;88417;-36
2022/07/27 09:12:29;;;;;;;;;;;25.30;52.70;;;;;;5022677;28;88315;-36
2022/07/27 09:15:15;;;;;;;;;;;25.30;52.60;;;;;;5022798;28;86932;-36
2022/07/27 09:17:43;;;;;;;;;;;25.30;52.60;;;;;;5022857;28;87983;-36
2022/07/27 09:20:15;;;;;;;;;;;25.40;52.60;;;;;;5021870;28;89477;-36
2022/07/27 09:22:49;;;;;;;;;;;25.40;52.60;;;;;;5022756;28;87148;-36
2022/07/27 09:25:16;;;;;;;;;;;25.40;52.70;;;;;;5022977;28;89115;-36
2022/07/27 09:27:42;;;;;;;;;;;25.40;52.60;;;;;;5022304;28;87637;-36
2022/07/27 09:30:12;;;;;;;;;;;25.40;52.60;;;;;;5025461;28;87127;-36
2022/07/27 09:32:49;;;;;;;;;;;25.40;52.60;;;;;;5019908;28;92766;-36
2022/07/27 09:35:18;;;;;;;;;;;25.40;52.60;;;;;;5022924;28;87032;-36
2022/07/27 09:37:44;;;;;;;;;;;25.50;52.70;;;;;;5022809;28;87099;-36
2022/07/27 09:40:17;;;;;;;;;;;25.40;52.60;;;;;;5022226;28;88088;-36
2022/07/27 09:42:43;;;;;;;;;;;25.50;52.60;;;;;;5022376;28;87100;-36
2022/07/27 09:45:27;;;;;;;;;;;25.50;52.70;;;;;;5022380;28;87419;-36
2022/07/27 09:48:04;;;;;;;;;;;25.50;52.60;;;;;;5021962;28;89374;-37
2022/07/27 09:50:30;;;;;;;;;;;25.50;52.60;;;;;;5023217;28;86714;-36
2022/07/27 09:53:10;;;;;;;;;;;25.50;52.60;;;;;;5025105;28;86982;-36
2022/07/27 09:55:35;;;;;;;;;;;25.50;52.50;;;;;;5022353;28;87205;-37
2022/07/27 09:58:01;;;;;;;;;;;25.60;52.70;;;;;;5022014;28;88667;-36
2022/07/27 10:00:26;;;;;;;;;;;25.60;52.60;;;;;;5021893;28;88172;-36
2022/07/27 10:02:52;;;;;;;;;;;25.60;52.50;;;;;;5022326;28;87536;-36
2022/07/27 10:05:20;;;;;;;;;;;25.70;52.70;;;;;;5022483;28;87295;-36
2022/07/27 10:07:46;;;;;;;;;;;25.70;52.60;;;;;;5022840;28;87489;-36
2022/07/27 10:10:13;;;;;;;;;;;25.70;52.50;;;;;;5025689;28;87132;-36
2022/07/27 10:12:39;;;;;;;;;;;25.70;52.50;;;;;;5025529;28;88884;-36
2022/07/27 10:15:04;;;;;;;;;;;25.70;52.50;;;;;;5028564;28;88586;-36
2022/07/27 10:17:30;;;;;;;;;;;25.70;52.50;;;;;;5025954;28;87064;-36
2022/07/27 10:19:56;;;;;;;;;;;25.70;53.20;;;;;;5025114;28;88260;-36
2022/07/27 10:22:45;;;;;;;;;;;25.80;52.60;;;;;;5025156;28;87913;-36
2022/07/27 10:25:11;;;;;;;;;;;25.80;52.50;;;;;;5014657;28;87589;-36
2022/07/27 10:27:36;;;;;;;;;;;25.80;52.50;;;;;;5025120;28;88591;-36
2022/07/27 10:30:04;;;;;;;;;;;25.80;52.50;;;;;;5025452;28;87201;-36
2022/07/27 10:32:30;;;;;;;;;;;25.80;52.50;;;;;;5025408;28;88926;-36
2022/07/27 10:34:56;;;;;;;;;;;25.90;52.60;;;;;;5023708;28;91051;-36
2022/07/27 10:37:29;;;;;;;;;;;25.90;52.60;;;;;;5028578;28;86942;-36
2022/07/27 10:42:48;;;;;;;;;;;25.90;52.60;;;;;;5025552;28;87466;-36
2022/07/27 10:45:17;;;;;;;;;;;26.00;52.60;;;;;;5025203;28;89246;-36
2022/07/27 10:47:47;;;;;;;;;;;26.00;52.60;;;;;;5023706;28;90341;-37
2022/07/27 10:50:16;;;;;;;;;;;26.00;52.60;;;;;;5025074;28;87160;-36
2022/07/27 10:52:44;;;;;;;;;;;26.00;52.70;;;;;;5025408;28;88001;-37
2022/07/27 10:55:28;;;;;;;;;;;26.00;52.70;;;;;;5025022;28;88231;-36
2022/07/27 10:57:54;;;;;;;;;;;26.10;52.60;;;;;;5028079;28;87231;-36
2022/07/27 11:00:20;;;;;;;;;;;26.10;52.50;;;;;;5024449;28;87831;-36
2022/07/27 11:02:45;;;;;;;;;;;26.10;52.60;;;;;;5025059;28;87057;-36
2022/07/27 11:05:11;;;;;;;;;;;26.10;52.50;;;;;;5025604;28;87561;-37
2022/07/27 11:07:42;;;;;;;;;;;26.10;52.50;;;;;;5024689;28;87797;-36
2022/07/27 11:10:08;;;;;;;;;;;26.10;52.50;;;;;;5024981;28;86991;-36
2022/07/27 11:12:35;;;;;;;;;;;26.20;52.60;;;;;;5024037;28;88790;-36
2022/07/27 11:15:01;;;;;;;;;;;26.10;52.50;;;;;;5024024;28;88612;-36
2022/07/27 11:17:27;;;;;;;;;;;26.20;52.50;;;;;;5024770;28;87141;-36
2022/07/27 11:19:57;;;;;;;;;;;26.20;52.60;;;;;;5026123;28;86994;-36
2022/07/27 11:22:31;;;;;;;;;;;26.20;52.50;;;;;;5024784;28;87099;-36
2022/07/27 11:24:58;;;;;;;;;;;26.20;52.60;;;;;;5024911;28;87524;-36
2022/07/27 11:27:25;;;;;;;;;;;26.30;52.60;;;;;;5024083;28;89282;-36
2022/07/27 11:29:50;;;;;;;;;;;26.30;52.50;;;;;;5025121;28;86389;-36
2022/07/27 11:32:16;;;;;;;;;;;26.30;52.50;;;;;;5024807;28;87073;-36
2022/07/27 11:34:42;;;;;;;;;;;26.40;52.50;;;;;;5024382;28;88137;-36
2022/07/27 11:37:12;;;;;;;;;;;26.40;52.70;;;;;;5023786;28;88072;-36
2022/07/27 11:39:38;;;;;;;;;;;26.40;52.50;;;;;;5024170;28;88511;-36
2022/07/27 11:42:03;;;;;;;;;;;26.40;52.50;;;;;;5027039;28;87307;-36
2022/07/27 11:44:29;;;;;;;;;;;26.40;52.50;;;;;;5024092;28;87941;-36
2022/07/27 11:46:55;;;;;;;;;;;26.40;52.40;;;;;;5023947;28;88018;-37
2022/07/27 11:49:27;;;;;;;;;;;26.50;52.40;;;;;;5024299;28;87132;-36
2022/07/27 11:52:03;;;;;;;;;;;26.50;52.40;;;;;;5024546;28;87390;-36
2022/07/27 11:54:29;;;;;;;;;;;26.50;52.40;;;;;;5024600;28;88053;-36
2022/07/27 11:56:56;;;;;;;;;;;26.50;52.30;;;;;;5024088;28;87104;-36
2022/07/27 11:59:21;;;;;;;;;;;26.50;52.40;;;;;;5024104;28;87685;-36
2022/07/27 12:01:48;;;;;;;;;;;26.60;52.40;;;;;;5023229;28;88097;-36
2022/07/27 12:04:14;;;;;;;;;;;26.60;52.30;;;;;;5027048;28;87116;-36
2022/07/27 12:06:45;;;;;;;;;;;26.60;52.30;;;;;;5023707;28;87892;-36
2022/07/27 12:09:12;;;;;;;;;;;26.60;52.20;;;;;;5024170;28;87347;-37
2022/07/27 12:11:49;;;;;;;;;;;26.70;52.30;;;;;;5023726;28;88905;-36
2022/07/27 12:14:16;;;;;;;;;;;26.70;52.30;;;;;;5023762;28;88120;-37
2022/07/27 12:16:41;;;;;;;;;;;26.70;52.20;;;;;;5024133;28;87163;-37
2022/07/27 12:19:07;;;;;;;;;;;26.80;52.20;;;;;;5024272;28;86669;-36
2022/07/27 12:21:33;;;;;;;;;;;26.70;52.10;;;;;;5023703;28;88374;-36
2022/07/27 12:23:58;;;;;;;;;;;26.80;52.20;;;;;;5024001;28;87155;-37
2022/07/27 12:26:24;;;;;;;;;;;26.80;52.10;;;;;;5025746;28;88196;-36
2022/07/27 12:29:09;;;;;;;;;;;26.80;52.10;;;;;;5023532;28;87099;-37
2022/07/27 12:31:36;;;;;;;;;;;26.80;52.00;;;;;;5023470;28;87374;-37
2022/07/27 12:34:04;;;;;;;;;;;26.80;52.00;;;;;;5023367;28;88079;-37
2022/07/27 12:36:30;;;;;;;;;;;26.80;51.90;;;;;;5023757;28;87013;-36
2022/07/27 12:38:57;;;;;;;;;;;26.90;52.00;;;;;;5023327;28;88757;-37
2022/07/27 12:41:31;;;;;;;;;;;26.90;52.00;;;;;;5022925;28;89676;-36
2022/07/27 12:44:06;;;;;;;;;;;26.90;52.00;;;;;;5023923;28;86310;-37
2022/07/27 12:46:32;;;;;;;;;;;26.90;51.90;;;;;;5022653;28;88254;-37
2022/07/27 12:48:58;;;;;;;;;;;27.00;51.90;;;;;;5026002;28;87281;-36
2022/07/27 12:51:23;;;;;;;;;;;27.00;51.90;;;;;;5021352;28;89416;-36
2022/07/27 12:53:49;;;;;;;;;;;27.00;51.90;;;;;;5022715;28;89740;-36
2022/07/27 12:56:15;;;;;;;;;;;27.10;51.80;;;;;;5023338;28;87089;-37
2022/07/27 12:58:56;;;;;;;;;;;27.10;51.90;;;;;;5023311;28;87299;-36
2022/07/27 13:01:22;;;;;;;;;;;27.10;51.80;;;;;;5022773;28;88501;-36
2022/07/27 13:03:47;;;;;;;;;;;27.10;51.70;;;;;;5022821;28;87098;-37
2022/07/27 13:06:13;;;;;;;;;;;27.20;51.70;;;;;;5023636;28;87306;-37
2022/07/27 13:08:39;;;;;;;;;;;27.20;51.70;;;;;;5026199;28;87171;-37
2022/07/27 13:11:04;;;;;;;;;;;27.20;51.50;;;;;;5023094;28;86989;-36
2022/07/27 13:13:30;;;;;;;;;;;27.20;51.50;;;;;;5022759;28;87904;-36
2022/07/27 13:15:55;;;;;;;;;;;27.20;51.60;;;;;;5022326;28;88049;-36
2022/07/27 13:18:21;;;;;;;;;;;27.30;51.60;;;;;;5022617;28;88278;-36
2022/07/27 13:20:46;;;;;;;;;;;27.30;51.60;;;;;;5022392;28;87857;-36
2022/07/27 13:23:12;;;;;;;;;;;27.30;51.50;;;;;;5022909;28;87188;-36
2022/07/27 13:25:37;;;;;;;;;;;27.30;51.40;;;;;;5022521;28;88592;-37
2022/07/27 13:28:03;;;;;;;;;;;27.40;51.50;;;;;;5022594;28;87998;-36
2022/07/27 13:30:29;;;;;;;;;;;27.30;51.40;;;;;;5025406;28;87083;-36
2022/07/27 13:32:55;;;;;;;;;;;27.40;51.40;;;;;;5022701;28;88775;-37
2022/07/27 13:35:20;;;;;;;;;;;27.40;51.00;;;;;;5022363;28;87866;-37
2022/07/27 13:37:46;;;;;;;;;;;27.40;51.20;;;;;;5022654;28;87428;-37
2022/07/27 13:40:12;;;;;;;;;;;27.40;51.30;;;;;;5021427;28;89388;-37
2022/07/27 13:42:38;;;;;;;;;;;27.40;51.10;;;;;;5021828;28;86993;-38
2022/07/27 13:45:05;;;;;;;;;;;27.40;51.20;;;;;;5022286;28;89302;-36
2022/07/27 13:47:30;;;;;;;;;;;27.50;51.10;;;;;;5021685;28;88210;-37
2022/07/27 13:49:56;;;;;;;;;;;27.50;51.10;;;;;;5022330;28;87128;-36
2022/07/27 13:52:21;;;;;;;;;;;27.50;51.10;;;;;;5025115;28;87531;-36
2022/07/27 13:54:47;;;;;;;;;;;27.50;50.90;;;;;;5022489;28;87114;-36
2022/07/27 13:57:13;;;;;;;;;;;27.50;51.00;;;;;;5022788;28;87038;-36
2022/07/27 13:59:38;;;;;;;;;;;27.50;50.90;;;;;;5022066;28;88002;-36
2022/07/27 14:02:04;;;;;;;;;;;27.60;50.90;;;;;;5022460;28;87030;-36
2022/07/27 14:04:29;;;;;;;;;;;27.60;50.80;;;;;;5021206;28;88808;-36
2022/07/27 14:06:55;;;;;;;;;;;27.60;50.90;;;;;;5022133;28;87844;-36
2022/07/27 14:10:30;;;;;;;;;;;27.60;50.80;;;;;;5022250;28;87076;-36
2022/07/27 14:12:06;;;;;;;;;;;27.60;50.70;;;;;;5022023;28;87977;-36
2022/07/27 14:14:31;;;;;;;;;;;27.60;50.70;;;;;;5024798;28;86922;-37
2022/07/27 14:16:57;;;;;;;;;;;27.60;50.70;;;;;;5022130;28;87018;-36
2022/07/27 14:19:22;;;;;;;;;;;27.60;50.60;;;;;;5021607;28;88052;-37
2022/07/27 14:21:48;;;;;;;;;;;27.60;50.60;;;;;;5022685;28;86316;-36